sensor_id;sensor_type;location;lat;lon;timestamp;P1;durP1;ratioP1;P2;durP2;ratioP2
23119;SDS011;11729;50.836;4.330;2023-02-27T00:02:24;11.00;;;7.78;;
23119;SDS011;11729;50.836;4.330;2023-02-27T00:04:51;9.32;;;7.50;;
23119;SDS011;11729;50.836;4.330;2023-02-27T00:07:18;11.18;;;7.78;;
23119;SDS011;11729;50.836;4.330;2023-02-27T00:09:44;12.85;;;7.95;;
23119;SDS011;11729;50.836;4.330;2023-02-27T00:12:10;14.13;;;8.32;;
23119;SDS011;11729;50.836;4.330;2023-02-27T00:14:36;8.68;;;7.78;;
23119;SDS011;11729;50.836;4.330;2023-02-27T00:17:01;8.70;;;7.65;;
23119;SDS011;11729;50.836;4.330;2023-02-27T00:19:27;9.68;;;7.40;;
23119;SDS011;11729;50.836;4.330;2023-02-27T00:21:52;10.27;;;7.78;;
23119;SDS011;11729;50.836;4.330;2023-02-27T00:24:20;12.80;;;8.18;;
23119;SDS011;11729;50.836;4.330;2023-02-27T00:26:46;12.02;;;7.93;;
23119;SDS011;11729;50.836;4.330;2023-02-27T00:29:13;11.93;;;8.18;;
23119;SDS011;11729;50.836;4.330;2023-02-27T00:31:38;10.57;;;7.72;;
23119;SDS011;11729;50.836;4.330;2023-02-27T00:34:04;11.90;;;7.28;;
23119;SDS011;11729;50.836;4.330;2023-02-27T00:36:29;9.30;;;7.28;;
23119;SDS011;11729;50.836;4.330;2023-02-27T00:38:55;8.82;;;7.80;;
23119;SDS011;11729;50.836;4.330;2023-02-27T00:41:21;10.30;;;7.70;;
23119;SDS011;11729;50.836;4.330;2023-02-27T00:43:46;8.45;;;7.45;;
23119;SDS011;11729;50.836;4.330;2023-02-27T00:46:12;9.82;;;8.07;;
23119;SDS011;11729;50.836;4.330;2023-02-27T00:48:38;13.02;;;7.95;;
23119;SDS011;11729;50.836;4.330;2023-02-27T00:51:03;8.98;;;8.05;;
23119;SDS011;11729;50.836;4.330;2023-02-27T00:53:30;9.20;;;7.82;;
23119;SDS011;11729;50.836;4.330;2023-02-27T00:55:56;8.60;;;7.80;;
23119;SDS011;11729;50.836;4.330;2023-02-27T00:58:21;10.23;;;7.68;;
23119;SDS011;11729;50.836;4.330;2023-02-27T01:00:48;10.27;;;7.70;;
23119;SDS011;11729;50.836;4.330;2023-02-27T01:03:13;8.80;;;7.55;;
23119;SDS011;11729;50.836;4.330;2023-02-27T01:05:39;11.45;;;7.50;;
23119;SDS011;11729;50.836;4.330;2023-02-27T01:08:05;15.73;;;7.90;;
23119;SDS011;11729;50.836;4.330;2023-02-27T01:10:31;12.82;;;7.97;;
23119;SDS011;11729;50.836;4.330;2023-02-27T01:12:57;9.75;;;7.43;;
23119;SDS011;11729;50.836;4.330;2023-02-27T01:15:23;10.02;;;8.02;;
23119;SDS011;11729;50.836;4.330;2023-02-27T01:17:48;10.43;;;8.20;;
23119;SDS011;11729;50.836;4.330;2023-02-27T01:20:14;9.20;;;7.60;;
23119;SDS011;11729;50.836;4.330;2023-02-27T01:22:40;8.43;;;7.30;;
23119;SDS011;11729;50.836;4.330;2023-02-27T01:25:06;8.80;;;7.38;;
23119;SDS011;11729;50.836;4.330;2023-02-27T01:27:32;14.60;;;8.07;;
23119;SDS011;11729;50.836;4.330;2023-02-27T01:29:58;10.55;;;7.78;;
23119;SDS011;11729;50.836;4.330;2023-02-27T01:32:24;9.65;;;7.60;;
23119;SDS011;11729;50.836;4.330;2023-02-27T01:34:49;12.35;;;7.40;;
23119;SDS011;11729;50.836;4.330;2023-02-27T01:37:16;10.35;;;7.82;;
23119;SDS011;11729;50.836;4.330;2023-02-27T01:39:42;9.02;;;7.65;;
23119;SDS011;11729;50.836;4.330;2023-02-27T01:42:18;8.80;;;7.90;;
23119;SDS011;11729;50.836;4.330;2023-02-27T01:45:09;10.52;;;8.02;;
23119;SDS011;11729;50.836;4.330;2023-02-27T01:47:51;9.75;;;8.05;;
23119;SDS011;11729;50.836;4.330;2023-02-27T01:50:21;10.55;;;7.95;;
23119;SDS011;11729;50.836;4.330;2023-02-27T01:52:50;11.27;;;8.07;;
23119;SDS011;11729;50.836;4.330;2023-02-27T01:55:19;13.85;;;7.85;;
23119;SDS011;11729;50.836;4.330;2023-02-27T01:57:46;8.02;;;7.13;;
23119;SDS011;11729;50.836;4.330;2023-02-27T02:00:13;8.82;;;8.02;;
23119;SDS011;11729;50.836;4.330;2023-02-27T02:02:41;12.10;;;7.80;;
23119;SDS011;11729;50.836;4.330;2023-02-27T02:05:11;10.68;;;7.70;;
23119;SDS011;11729;50.836;4.330;2023-02-27T02:07:38;9.02;;;7.38;;
23119;SDS011;11729;50.836;4.330;2023-02-27T02:10:06;9.25;;;7.40;;
23119;SDS011;11729;50.836;4.330;2023-02-27T02:12:36;12.82;;;7.55;;
23119;SDS011;11729;50.836;4.330;2023-02-27T02:15:03;10.73;;;7.45;;
23119;SDS011;11729;50.836;4.330;2023-02-27T02:17:37;12.05;;;7.47;;
23119;SDS011;11729;50.836;4.330;2023-02-27T02:45:16;8.25;;;7.35;;
23119;SDS011;11729;50.836;4.330;2023-02-27T02:48:02;10.48;;;7.47;;
23119;SDS011;11729;50.836;4.330;2023-02-27T02:50:49;8.30;;;7.50;;
23119;SDS011;11729;50.836;4.330;2023-02-27T02:53:30;13.17;;;8.10;;
23119;SDS011;11729;50.836;4.330;2023-02-27T02:56:16;8.63;;;7.70;;
23119;SDS011;11729;50.836;4.330;2023-02-27T02:58:50;10.80;;;7.50;;
23119;SDS011;11729;50.836;4.330;2023-02-27T03:06:46;10.32;;;8.20;;
23119;SDS011;11729;50.836;4.330;2023-02-27T03:09:29;9.35;;;7.95;;
23119;SDS011;11729;50.836;4.330;2023-02-27T03:12:01;12.25;;;7.60;;
23119;SDS011;11729;50.836;4.330;2023-02-27T03:15:05;11.05;;;8.35;;
23119;SDS011;11729;50.836;4.330;2023-02-27T03:18:04;11.27;;;7.80;;
23119;SDS011;11729;50.836;4.330;2023-02-27T03:20:47;11.48;;;7.65;;
23119;SDS011;11729;50.836;4.330;2023-02-27T03:23:21;8.68;;;7.78;;
23119;SDS011;11729;50.836;4.330;2023-02-27T03:25:51;9.90;;;7.72;;
23119;SDS011;11729;50.836;4.330;2023-02-27T03:28:18;13.57;;;8.65;;
23119;SDS011;11729;50.836;4.330;2023-02-27T03:30:55;9.77;;;8.05;;
23119;SDS011;11729;50.836;4.330;2023-02-27T03:33:42;15.00;;;7.50;;
23119;SDS011;11729;50.836;4.330;2023-02-27T03:39:17;8.40;;;7.60;;
23119;SDS011;11729;50.836;4.330;2023-02-27T03:42:02;8.85;;;7.97;;
23119;SDS011;11729;50.836;4.330;2023-02-27T03:47:21;7.88;;;7.28;;
23119;SDS011;11729;50.836;4.330;2023-02-27T03:49:48;7.88;;;7.38;;
23119;SDS011;11729;50.836;4.330;2023-02-27T03:52:20;8.85;;;7.70;;
23119;SDS011;11729;50.836;4.330;2023-02-27T03:55:22;8.27;;;7.43;;
23119;SDS011;11729;50.836;4.330;2023-02-27T03:57:42;8.90;;;7.90;;
23119;SDS011;11729;50.836;4.330;2023-02-27T04:00:13;10.75;;;8.52;;
23119;SDS011;11729;50.836;4.330;2023-02-27T04:02:41;10.18;;;7.65;;
23119;SDS011;11729;50.836;4.330;2023-02-27T04:05:08;9.75;;;8.75;;
23119;SDS011;11729;50.836;4.330;2023-02-27T04:19:50;9.40;;;8.07;;
23119;SDS011;11729;50.836;4.330;2023-02-27T04:25:42;10.52;;;7.97;;
23119;SDS011;11729;50.836;4.330;2023-02-27T04:28:23;10.75;;;8.95;;
23119;SDS011;11729;50.836;4.330;2023-02-27T04:36:20;12.40;;;8.10;;
23119;SDS011;11729;50.836;4.330;2023-02-27T04:41:21;8.73;;;8.05;;
23119;SDS011;11729;50.836;4.330;2023-02-27T04:43:51;11.18;;;8.70;;
23119;SDS011;11729;50.836;4.330;2023-02-27T04:46:19;12.18;;;8.30;;
23119;SDS011;11729;50.836;4.330;2023-02-27T04:51:19;10.80;;;8.13;;
23119;SDS011;11729;50.836;4.330;2023-02-27T04:56:20;11.15;;;8.60;;
23119;SDS011;11729;50.836;4.330;2023-02-27T04:58:58;9.73;;;8.05;;
23119;SDS011;11729;50.836;4.330;2023-02-27T05:02:03;9.43;;;8.25;;
23119;SDS011;11729;50.836;4.330;2023-02-27T05:04:26;10.77;;;8.88;;
23119;SDS011;11729;50.836;4.330;2023-02-27T05:06:55;13.95;;;8.93;;
23119;SDS011;11729;50.836;4.330;2023-02-27T05:12:21;9.60;;;8.60;;
23119;SDS011;11729;50.836;4.330;2023-02-27T05:15:03;11.90;;;8.45;;
23119;SDS011;11729;50.836;4.330;2023-02-27T05:20:26;10.55;;;8.90;;
23119;SDS011;11729;50.836;4.330;2023-02-27T05:23:24;15.57;;;9.18;;
23119;SDS011;11729;50.836;4.330;2023-02-27T05:34:34;16.17;;;9.07;;
23119;SDS011;11729;50.836;4.330;2023-02-27T05:39:57;19.00;;;8.93;;
23119;SDS011;11729;50.836;4.330;2023-02-27T05:42:32;11.60;;;8.48;;
23119;SDS011;11729;50.836;4.330;2023-02-27T05:45:09;9.50;;;8.55;;
23119;SDS011;11729;50.836;4.330;2023-02-27T05:47:42;11.95;;;9.18;;
23119;SDS011;11729;50.836;4.330;2023-02-27T05:50:20;11.60;;;9.10;;
23119;SDS011;11729;50.836;4.330;2023-02-27T05:52:52;13.25;;;8.80;;
23119;SDS011;11729;50.836;4.330;2023-02-27T05:55:32;9.85;;;8.60;;
23119;SDS011;11729;50.836;4.330;2023-02-27T05:58:48;10.50;;;8.70;;
23119;SDS011;11729;50.836;4.330;2023-02-27T06:01:03;17.25;;;9.15;;
23119;SDS011;11729;50.836;4.330;2023-02-27T06:03:31;11.02;;;9.07;;
23119;SDS011;11729;50.836;4.330;2023-02-27T06:05:59;10.27;;;9.10;;
23119;SDS011;11729;50.836;4.330;2023-02-27T06:10:53;13.15;;;9.15;;
23119;SDS011;11729;50.836;4.330;2023-02-27T06:13:22;9.10;;;8.10;;
23119;SDS011;11729;50.836;4.330;2023-02-27T06:15:48;19.77;;;8.88;;
23119;SDS011;11729;50.836;4.330;2023-02-27T06:18:15;15.70;;;8.68;;
23119;SDS011;11729;50.836;4.330;2023-02-27T06:20:42;10.98;;;8.60;;
23119;SDS011;11729;50.836;4.330;2023-02-27T06:23:09;17.73;;;9.32;;
23119;SDS011;11729;50.836;4.330;2023-02-27T06:25:36;9.95;;;8.70;;
23119;SDS011;11729;50.836;4.330;2023-02-27T06:28:03;11.48;;;9.18;;
23119;SDS011;11729;50.836;4.330;2023-02-27T06:30:30;14.63;;;9.90;;
23119;SDS011;11729;50.836;4.330;2023-02-27T06:32:56;10.27;;;8.65;;
23119;SDS011;11729;50.836;4.330;2023-02-27T06:35:22;10.93;;;9.27;;
23119;SDS011;11729;50.836;4.330;2023-02-27T06:37:48;15.00;;;9.25;;
23119;SDS011;11729;50.836;4.330;2023-02-27T06:40:13;15.32;;;9.20;;
23119;SDS011;11729;50.836;4.330;2023-02-27T06:42:40;11.57;;;9.02;;
23119;SDS011;11729;50.836;4.330;2023-02-27T06:45:08;13.02;;;9.25;;
23119;SDS011;11729;50.836;4.330;2023-02-27T06:47:35;12.60;;;9.60;;
23119;SDS011;11729;50.836;4.330;2023-02-27T06:50:00;18.60;;;9.60;;
23119;SDS011;11729;50.836;4.330;2023-02-27T06:52:26;20.30;;;9.93;;
23119;SDS011;11729;50.836;4.330;2023-02-27T06:54:52;16.83;;;9.30;;
23119;SDS011;11729;50.836;4.330;2023-02-27T06:57:17;12.15;;;9.35;;
23119;SDS011;11729;50.836;4.330;2023-02-27T06:59:44;13.85;;;9.35;;
23119;SDS011;11729;50.836;4.330;2023-02-27T07:02:11;12.02;;;10.30;;
23119;SDS011;11729;50.836;4.330;2023-02-27T07:04:39;13.43;;;10.50;;
23119;SDS011;11729;50.836;4.330;2023-02-27T07:07:05;15.10;;;9.73;;
23119;SDS011;11729;50.836;4.330;2023-02-27T07:09:31;13.70;;;9.35;;
23119;SDS011;11729;50.836;4.330;2023-02-27T07:11:57;14.57;;;9.85;;
23119;SDS011;11729;50.836;4.330;2023-02-27T07:14:23;11.05;;;9.27;;
23119;SDS011;11729;50.836;4.330;2023-02-27T07:16:50;13.18;;;9.98;;
23119;SDS011;11729;50.836;4.330;2023-02-27T07:19:19;13.40;;;9.20;;
23119;SDS011;11729;50.836;4.330;2023-02-27T07:21:45;20.23;;;9.40;;
23119;SDS011;11729;50.836;4.330;2023-02-27T07:24:11;10.55;;;9.55;;
23119;SDS011;11729;50.836;4.330;2023-02-27T07:26:36;11.55;;;9.68;;
23119;SDS011;11729;50.836;4.330;2023-02-27T07:29:02;17.65;;;10.02;;
23119;SDS011;11729;50.836;4.330;2023-02-27T07:31:28;15.75;;;10.35;;
23119;SDS011;11729;50.836;4.330;2023-02-27T07:33:54;11.70;;;9.30;;
23119;SDS011;11729;50.836;4.330;2023-02-27T07:36:20;15.90;;;9.68;;
23119;SDS011;11729;50.836;4.330;2023-02-27T07:38:46;20.20;;;9.80;;
23119;SDS011;11729;50.836;4.330;2023-02-27T07:41:11;15.15;;;9.77;;
23119;SDS011;11729;50.836;4.330;2023-02-27T07:43:37;13.63;;;9.75;;
23119;SDS011;11729;50.836;4.330;2023-02-27T07:46:02;15.27;;;9.63;;
23119;SDS011;11729;50.836;4.330;2023-02-27T07:48:29;12.88;;;10.38;;
23119;SDS011;11729;50.836;4.330;2023-02-27T07:50:55;15.27;;;10.32;;
23119;SDS011;11729;50.836;4.330;2023-02-27T07:53:21;13.57;;;10.50;;
23119;SDS011;11729;50.836;4.330;2023-02-27T07:55:46;17.58;;;10.60;;
23119;SDS011;11729;50.836;4.330;2023-02-27T07:58:12;19.73;;;10.85;;
23119;SDS011;11729;50.836;4.330;2023-02-27T08:00:37;14.48;;;10.25;;
23119;SDS011;11729;50.836;4.330;2023-02-27T08:03:03;14.35;;;10.18;;
23119;SDS011;11729;50.836;4.330;2023-02-27T08:05:29;15.38;;;9.68;;
23119;SDS011;11729;50.836;4.330;2023-02-27T08:07:54;14.38;;;10.63;;
23119;SDS011;11729;50.836;4.330;2023-02-27T08:10:20;18.92;;;11.15;;
23119;SDS011;11729;50.836;4.330;2023-02-27T08:12:46;12.55;;;9.38;;
23119;SDS011;11729;50.836;4.330;2023-02-27T08:15:12;11.77;;;9.15;;
23119;SDS011;11729;50.836;4.330;2023-02-27T08:17:37;14.95;;;9.75;;
23119;SDS011;11729;50.836;4.330;2023-02-27T08:20:03;16.65;;;9.48;;
23119;SDS011;11729;50.836;4.330;2023-02-27T08:22:31;11.25;;;10.05;;
23119;SDS011;11729;50.836;4.330;2023-02-27T08:24:56;11.07;;;8.73;;
23119;SDS011;11729;50.836;4.330;2023-02-27T08:27:23;12.82;;;8.68;;
23119;SDS011;11729;50.836;4.330;2023-02-27T08:29:49;17.85;;;8.55;;
23119;SDS011;11729;50.836;4.330;2023-02-27T08:32:14;17.77;;;8.85;;
23119;SDS011;11729;50.836;4.330;2023-02-27T08:34:40;10.40;;;8.23;;
23119;SDS011;11729;50.836;4.330;2023-02-27T08:37:06;13.57;;;8.75;;
23119;SDS011;11729;50.836;4.330;2023-02-27T08:39:31;13.07;;;8.52;;
23119;SDS011;11729;50.836;4.330;2023-02-27T08:41:57;16.10;;;9.00;;
23119;SDS011;11729;50.836;4.330;2023-02-27T08:44:22;10.57;;;8.60;;
23119;SDS011;11729;50.836;4.330;2023-02-27T08:46:48;15.13;;;8.50;;
23119;SDS011;11729;50.836;4.330;2023-02-27T08:49:13;14.57;;;8.57;;
23119;SDS011;11729;50.836;4.330;2023-02-27T08:51:39;10.13;;;8.20;;
23119;SDS011;11729;50.836;4.330;2023-02-27T08:54:05;10.02;;;8.38;;
23119;SDS011;11729;50.836;4.330;2023-02-27T08:56:31;15.45;;;8.60;;
23119;SDS011;11729;50.836;4.330;2023-02-27T08:58:58;13.35;;;8.63;;
23119;SDS011;11729;50.836;4.330;2023-02-27T09:01:25;12.25;;;8.75;;
23119;SDS011;11729;50.836;4.330;2023-02-27T09:03:55;11.30;;;8.32;;
23119;SDS011;11729;50.836;4.330;2023-02-27T09:06:20;9.38;;;8.43;;
23119;SDS011;11729;50.836;4.330;2023-02-27T09:08:46;13.90;;;9.13;;
23119;SDS011;11729;50.836;4.330;2023-02-27T09:11:12;12.85;;;9.02;;
23119;SDS011;11729;50.836;4.330;2023-02-27T09:13:37;14.30;;;9.05;;
23119;SDS011;11729;50.836;4.330;2023-02-27T09:16:03;13.43;;;9.13;;
23119;SDS011;11729;50.836;4.330;2023-02-27T09:18:29;12.88;;;9.27;;
23119;SDS011;11729;50.836;4.330;2023-02-27T09:20:54;14.93;;;9.77;;
23119;SDS011;11729;50.836;4.330;2023-02-27T09:23:20;9.32;;;8.38;;
23119;SDS011;11729;50.836;4.330;2023-02-27T09:25:46;12.88;;;9.40;;
23119;SDS011;11729;50.836;4.330;2023-02-27T09:28:12;10.25;;;9.20;;
23119;SDS011;11729;50.836;4.330;2023-02-27T09:30:38;14.13;;;8.73;;
23119;SDS011;11729;50.836;4.330;2023-02-27T09:33:03;9.30;;;8.38;;
23119;SDS011;11729;50.836;4.330;2023-02-27T09:35:29;10.07;;;8.55;;
23119;SDS011;11729;50.836;4.330;2023-02-27T09:37:55;10.55;;;9.07;;
23119;SDS011;11729;50.836;4.330;2023-02-27T09:42:49;14.00;;;8.27;;
23119;SDS011;11729;50.836;4.330;2023-02-27T09:45:24;12.05;;;9.10;;
23119;SDS011;11729;50.836;4.330;2023-02-27T09:47:59;9.85;;;8.68;;
23119;SDS011;11729;50.836;4.330;2023-02-27T09:50:34;13.85;;;9.25;;
23119;SDS011;11729;50.836;4.330;2023-02-27T09:53:01;18.73;;;9.10;;
23119;SDS011;11729;50.836;4.330;2023-02-27T09:55:31;13.20;;;8.38;;
23119;SDS011;11729;50.836;4.330;2023-02-27T09:58:04;11.27;;;8.40;;
23119;SDS011;11729;50.836;4.330;2023-02-27T10:06:37;10.15;;;8.73;;
23119;SDS011;11729;50.836;4.330;2023-02-27T10:17:01;11.23;;;8.00;;
23119;SDS011;11729;50.836;4.330;2023-02-27T10:19:31;10.60;;;8.18;;
23119;SDS011;11729;50.836;4.330;2023-02-27T10:22:02;8.23;;;7.43;;
23119;SDS011;11729;50.836;4.330;2023-02-27T10:24:46;9.05;;;7.97;;
23119;SDS011;11729;50.836;4.330;2023-02-27T10:27:18;8.32;;;7.53;;
23119;SDS011;11729;50.836;4.330;2023-02-27T10:29:45;9.77;;;7.70;;
23119;SDS011;11729;50.836;4.330;2023-02-27T10:32:13;9.98;;;7.35;;
23119;SDS011;11729;50.836;4.330;2023-02-27T10:35:08;9.90;;;7.70;;
23119;SDS011;11729;50.836;4.330;2023-02-27T10:37:43;8.02;;;7.32;;
23119;SDS011;11729;50.836;4.330;2023-02-27T10:40:12;8.40;;;7.30;;
23119;SDS011;11729;50.836;4.330;2023-02-27T10:42:40;8.63;;;7.85;;
23119;SDS011;11729;50.836;4.330;2023-02-27T10:45:11;10.55;;;7.07;;
23119;SDS011;11729;50.836;4.330;2023-02-27T10:47:39;7.22;;;6.53;;
23119;SDS011;11729;50.836;4.330;2023-02-27T10:52:55;8.82;;;6.53;;
23119;SDS011;11729;50.836;4.330;2023-02-27T10:55:24;11.73;;;6.80;;
23119;SDS011;11729;50.836;4.330;2023-02-27T10:57:55;7.63;;;6.15;;
23119;SDS011;11729;50.836;4.330;2023-02-27T11:02:59;9.68;;;6.43;;
23119;SDS011;11729;50.836;4.330;2023-02-27T11:05:26;8.07;;;6.53;;
23119;SDS011;11729;50.836;4.330;2023-02-27T11:07:55;7.63;;;6.57;;
23119;SDS011;11729;50.836;4.330;2023-02-27T11:10:36;6.80;;;6.20;;
23119;SDS011;11729;50.836;4.330;2023-02-27T11:13:04;8.57;;;7.05;;
23119;SDS011;11729;50.836;4.330;2023-02-27T11:15:42;7.63;;;6.07;;
23119;SDS011;11729;50.836;4.330;2023-02-27T11:18:27;6.82;;;6.13;;
23119;SDS011;11729;50.836;4.330;2023-02-27T11:20:56;7.70;;;6.18;;
23119;SDS011;11729;50.836;4.330;2023-02-27T11:23:36;9.73;;;6.22;;
23119;SDS011;11729;50.836;4.330;2023-02-27T11:26:14;7.88;;;6.25;;
23119;SDS011;11729;50.836;4.330;2023-02-27T11:29:22;7.97;;;6.10;;
23119;SDS011;11729;50.836;4.330;2023-02-27T11:32:02;7.53;;;6.03;;
23119;SDS011;11729;50.836;4.330;2023-02-27T11:34:39;8.32;;;6.47;;
23119;SDS011;11729;50.836;4.330;2023-02-27T11:42:42;10.13;;;6.93;;
23119;SDS011;11729;50.836;4.330;2023-02-27T11:47:51;9.43;;;6.55;;
23119;SDS011;11729;50.836;4.330;2023-02-27T11:50:31;11.30;;;6.35;;
23119;SDS011;11729;50.836;4.330;2023-02-27T11:55:59;9.27;;;6.30;;
23119;SDS011;11729;50.836;4.330;2023-02-27T11:58:28;9.05;;;6.30;;
23119;SDS011;11729;50.836;4.330;2023-02-27T12:01:00;7.32;;;6.32;;
23119;SDS011;11729;50.836;4.330;2023-02-27T12:03:36;13.55;;;6.68;;
23119;SDS011;11729;50.836;4.330;2023-02-27T12:06:19;7.97;;;6.35;;
23119;SDS011;11729;50.836;4.330;2023-02-27T12:08:58;16.67;;;8.20;;
23119;SDS011;11729;50.836;4.330;2023-02-27T12:11:28;7.15;;;6.35;;
23119;SDS011;11729;50.836;4.330;2023-02-27T12:19:21;8.27;;;5.90;;
23119;SDS011;11729;50.836;4.330;2023-02-27T12:21:55;8.57;;;5.70;;
23119;SDS011;11729;50.836;4.330;2023-02-27T12:27:21;10.10;;;6.53;;
23119;SDS011;11729;50.836;4.330;2023-02-27T12:32:25;12.38;;;6.50;;
23119;SDS011;11729;50.836;4.330;2023-02-27T12:37:30;9.27;;;6.40;;
23119;SDS011;11729;50.836;4.330;2023-02-27T12:39:58;7.60;;;6.07;;
23119;SDS011;11729;50.836;4.330;2023-02-27T12:45:17;7.93;;;5.70;;
23119;SDS011;11729;50.836;4.330;2023-02-27T12:51:03;6.97;;;5.10;;
23119;SDS011;11729;50.836;4.330;2023-02-27T12:53:50;5.50;;;4.97;;
23119;SDS011;11729;50.836;4.330;2023-02-27T12:57:22;6.65;;;6.03;;
23119;SDS011;11729;50.836;4.330;2023-02-27T13:02:43;6.35;;;5.70;;
23119;SDS011;11729;50.836;4.330;2023-02-27T13:05:40;10.57;;;5.55;;
23119;SDS011;11729;50.836;4.330;2023-02-27T13:08:13;6.72;;;5.57;;
23119;SDS011;11729;50.836;4.330;2023-02-27T13:13:54;5.75;;;5.25;;
23119;SDS011;11729;50.836;4.330;2023-02-27T13:16:33;5.97;;;5.38;;
23119;SDS011;11729;50.836;4.330;2023-02-27T13:19:08;7.18;;;5.25;;
23119;SDS011;11729;50.836;4.330;2023-02-27T13:21:39;9.38;;;6.28;;
23119;SDS011;11729;50.836;4.330;2023-02-27T13:32:44;11.35;;;5.40;;
23119;SDS011;11729;50.836;4.330;2023-02-27T13:35:44;7.47;;;5.15;;
23119;SDS011;11729;50.836;4.330;2023-02-27T13:38:44;8.18;;;5.55;;
23119;SDS011;11729;50.836;4.330;2023-02-27T13:43:44;6.10;;;5.60;;
23119;SDS011;11729;50.836;4.330;2023-02-27T13:46:23;7.60;;;5.35;;
23119;SDS011;11729;50.836;4.330;2023-02-27T13:48:51;6.05;;;5.50;;
23119;SDS011;11729;50.836;4.330;2023-02-27T13:56:45;9.05;;;5.28;;
23119;SDS011;11729;50.836;4.330;2023-02-27T13:59:30;13.15;;;6.25;;
23119;SDS011;11729;50.836;4.330;2023-02-27T14:01:58;7.82;;;5.88;;
23119;SDS011;11729;50.836;4.330;2023-02-27T14:04:29;8.55;;;6.38;;
23119;SDS011;11729;50.836;4.330;2023-02-27T14:06:57;6.72;;;6.03;;
23119;SDS011;11729;50.836;4.330;2023-02-27T14:09:25;7.97;;;5.78;;
23119;SDS011;11729;50.836;4.330;2023-02-27T14:11:59;6.63;;;5.95;;
23119;SDS011;11729;50.836;4.330;2023-02-27T14:17:01;6.70;;;6.07;;
23119;SDS011;11729;50.836;4.330;2023-02-27T14:19:48;7.43;;;6.03;;
23119;SDS011;11729;50.836;4.330;2023-02-27T14:24:41;9.70;;;6.00;;
23119;SDS011;11729;50.836;4.330;2023-02-27T14:27:21;8.07;;;5.80;;
23119;SDS011;11729;50.836;4.330;2023-02-27T14:29:51;8.73;;;5.88;;
23119;SDS011;11729;50.836;4.330;2023-02-27T14:32:23;8.40;;;6.05;;
23119;SDS011;11729;50.836;4.330;2023-02-27T14:34:54;7.93;;;6.22;;
23119;SDS011;11729;50.836;4.330;2023-02-27T14:37:21;6.60;;;6.00;;
23119;SDS011;11729;50.836;4.330;2023-02-27T14:39:50;6.47;;;5.90;;
23119;SDS011;11729;50.836;4.330;2023-02-27T14:45:11;11.63;;;6.28;;
23119;SDS011;11729;50.836;4.330;2023-02-27T14:47:38;7.38;;;6.68;;
23119;SDS011;11729;50.836;4.330;2023-02-27T14:50:06;7.55;;;6.63;;
23119;SDS011;11729;50.836;4.330;2023-02-27T14:52:45;12.85;;;7.95;;
23119;SDS011;11729;50.836;4.330;2023-02-27T14:55:13;9.57;;;7.00;;
23119;SDS011;11729;50.836;4.330;2023-02-27T15:00:41;13.93;;;7.47;;
23119;SDS011;11729;50.836;4.330;2023-02-27T15:03:25;9.70;;;7.50;;
23119;SDS011;11729;50.836;4.330;2023-02-27T15:06:13;7.90;;;6.93;;
23119;SDS011;11729;50.836;4.330;2023-02-27T15:08:40;10.60;;;6.93;;
23119;SDS011;11729;50.836;4.330;2023-02-27T15:11:12;12.75;;;8.00;;
23119;SDS011;11729;50.836;4.330;2023-02-27T15:13:40;7.53;;;6.85;;
23119;SDS011;11729;50.836;4.330;2023-02-27T15:18:51;7.47;;;6.78;;
23119;SDS011;11729;50.836;4.330;2023-02-27T15:21:20;7.25;;;6.53;;
23119;SDS011;11729;50.836;4.330;2023-02-27T15:26:27;8.75;;;6.72;;
23119;SDS011;11729;50.836;4.330;2023-02-27T15:28:58;7.45;;;6.78;;
23119;SDS011;11729;50.836;4.330;2023-02-27T15:31:24;10.18;;;6.80;;
23119;SDS011;11729;50.836;4.330;2023-02-27T15:33:54;9.18;;;6.80;;
23119;SDS011;11729;50.836;4.330;2023-02-27T15:36:44;7.88;;;6.38;;
23119;SDS011;11729;50.836;4.330;2023-02-27T15:41:39;7.32;;;6.63;;
23119;SDS011;11729;50.836;4.330;2023-02-27T15:44:05;8.32;;;6.72;;
23119;SDS011;11729;50.836;4.330;2023-02-27T15:46:31;9.75;;;7.78;;
23119;SDS011;11729;50.836;4.330;2023-02-27T15:48:57;8.00;;;6.60;;
23119;SDS011;11729;50.836;4.330;2023-02-27T15:51:24;10.35;;;6.78;;
23119;SDS011;11729;50.836;4.330;2023-02-27T15:53:52;9.27;;;6.50;;
23119;SDS011;11729;50.836;4.330;2023-02-27T15:56:24;7.97;;;7.03;;
23119;SDS011;11729;50.836;4.330;2023-02-27T15:58:57;7.30;;;6.60;;
23119;SDS011;11729;50.836;4.330;2023-02-27T16:01:28;7.93;;;7.10;;
23119;SDS011;11729;50.836;4.330;2023-02-27T16:06:34;13.40;;;7.90;;
23119;SDS011;11729;50.836;4.330;2023-02-27T16:09:05;7.65;;;6.95;;
23119;SDS011;11729;50.836;4.330;2023-02-27T16:11:44;9.27;;;8.13;;
23119;SDS011;11729;50.836;4.330;2023-02-27T16:17:00;10.55;;;7.88;;
23119;SDS011;11729;50.836;4.330;2023-02-27T16:19:27;7.85;;;7.15;;
23119;SDS011;11729;50.836;4.330;2023-02-27T16:22:02;7.97;;;7.10;;
23119;SDS011;11729;50.836;4.330;2023-02-27T16:24:29;10.30;;;7.43;;
23119;SDS011;11729;50.836;4.330;2023-02-27T16:26:56;7.93;;;7.28;;
23119;SDS011;11729;50.836;4.330;2023-02-27T16:29:22;10.07;;;7.60;;
23119;SDS011;11729;50.836;4.330;2023-02-27T16:31:56;8.15;;;7.32;;
23119;SDS011;11729;50.836;4.330;2023-02-27T16:34:35;13.05;;;8.27;;
23119;SDS011;11729;50.836;4.330;2023-02-27T16:37:04;9.32;;;8.15;;
23119;SDS011;11729;50.836;4.330;2023-02-27T16:39:31;10.85;;;8.02;;
23119;SDS011;11729;50.836;4.330;2023-02-27T16:41:59;8.00;;;7.30;;
23119;SDS011;11729;50.836;4.330;2023-02-27T16:44:26;8.75;;;7.72;;
23119;SDS011;11729;50.836;4.330;2023-02-27T16:46:53;10.93;;;7.90;;
23119;SDS011;11729;50.836;4.330;2023-02-27T16:49:22;13.40;;;7.93;;
23119;SDS011;11729;50.836;4.330;2023-02-27T16:51:50;8.25;;;7.43;;
23119;SDS011;11729;50.836;4.330;2023-02-27T16:54:16;8.25;;;7.50;;
23119;SDS011;11729;50.836;4.330;2023-02-27T16:56:42;7.70;;;7.05;;
23119;SDS011;11729;50.836;4.330;2023-02-27T16:59:32;8.32;;;7.22;;
23119;SDS011;11729;50.836;4.330;2023-02-27T17:02:06;8.13;;;7.32;;
23119;SDS011;11729;50.836;4.330;2023-02-27T17:04:35;8.15;;;7.35;;
23119;SDS011;11729;50.836;4.330;2023-02-27T17:07:01;9.70;;;7.95;;
23119;SDS011;11729;50.836;4.330;2023-02-27T17:09:27;11.38;;;8.30;;
23119;SDS011;11729;50.836;4.330;2023-02-27T17:11:53;15.85;;;8.00;;
23119;SDS011;11729;50.836;4.330;2023-02-27T17:14:20;10.88;;;8.38;;
23119;SDS011;11729;50.836;4.330;2023-02-27T17:16:46;13.40;;;8.20;;
23119;SDS011;11729;50.836;4.330;2023-02-27T17:19:12;10.98;;;8.02;;
23119;SDS011;11729;50.836;4.330;2023-02-27T17:21:38;9.50;;;8.27;;
23119;SDS011;11729;50.836;4.330;2023-02-27T17:24:04;8.85;;;8.02;;
23119;SDS011;11729;50.836;4.330;2023-02-27T17:26:30;10.80;;;8.23;;
23119;SDS011;11729;50.836;4.330;2023-02-27T17:28:57;9.02;;;8.23;;
23119;SDS011;11729;50.836;4.330;2023-02-27T17:31:22;13.75;;;8.48;;
23119;SDS011;11729;50.836;4.330;2023-02-27T17:33:49;8.27;;;7.43;;
23119;SDS011;11729;50.836;4.330;2023-02-27T17:36:15;8.15;;;7.35;;
23119;SDS011;11729;50.836;4.330;2023-02-27T17:38:41;9.07;;;7.60;;
23119;SDS011;11729;50.836;4.330;2023-02-27T17:41:08;8.63;;;7.78;;
23119;SDS011;11729;50.836;4.330;2023-02-27T17:43:35;8.20;;;7.00;;
23119;SDS011;11729;50.836;4.330;2023-02-27T17:46:09;9.15;;;7.60;;
23119;SDS011;11729;50.836;4.330;2023-02-27T17:48:37;10.60;;;7.35;;
23119;SDS011;11729;50.836;4.330;2023-02-27T17:51:10;9.07;;;7.85;;
23119;SDS011;11729;50.836;4.330;2023-02-27T17:53:38;8.70;;;7.60;;
23119;SDS011;11729;50.836;4.330;2023-02-27T17:56:04;13.55;;;8.25;;
23119;SDS011;11729;50.836;4.330;2023-02-27T17:58:31;10.60;;;8.95;;
23119;SDS011;11729;50.836;4.330;2023-02-27T18:01:06;10.38;;;8.57;;
23119;SDS011;11729;50.836;4.330;2023-02-27T18:03:33;12.05;;;8.65;;
23119;SDS011;11729;50.836;4.330;2023-02-27T18:05:59;9.80;;;8.75;;